MMTG 090442Z 27003KT 8SM SCT300 24/20 A3000 RMK 8/002 ISOL AC= 090442

MMTG 090342Z 00000KT 8SM FEW080 SCT300 25/20 A3000 RMK 8/032= 090342

MMTG 090252Z 33005KT 8SM FEW080 SCT090 26/20 A2998 RMK SLP121 51022 903 8/070 ISOL CI= 090253

MMTG 090145Z 29008KT 8SM SCT080 26/20 A2996 RMK 8/030= 090146

MMTG 090047Z 32012KT 7SM SCT080 SCT090 27/20 A2994 RMK 8/070 ISOL SC= 090048

MMTG 082348Z 32011KT 7SM FEW040 SCT080 BKN090 28/20 A2991 RMK SLP099 52009 951 8/470 HZY= 082350

MMTG 082242Z 32006KT 7SM SCT040 BKN080 32/19 A2989 RMK 8/430 HZY= 082244

MMTG 082145Z 00000KT 7SM SCT040 BKN070 32/17 A2988 RMK 8/570 HZY= 082145

MMTG 082049Z 29003KT 7SM SCT040 32/18 A2989 RMK SLP084 57036 902 8/500 HZY= 082051

MMTG 081943Z 13005KT 7SM SCT040 32/18 A2991 RMK 8/500 HZY= 081944

MMTG 081846Z 11007KT 7SM SCT030 31/19 A2995 RMK 8/500 HZY= 081846

MMTG 081749Z 11006KT 6SM SCT020 29/19 A2999 RMK SLP123 57025 902 8/100 HZY= 081750

MMTG 081647Z 18002KT 5SM SCT018 28/20 A3004 RMK 8/500 HZY= 081648

MMTG 081553Z 05003KT 4SM FEW015 25/20 A3007 RMK 8/600 HZY= 081554

SPECI MMTG 081519Z 15002KT 3SM HZ SKC 24/20 A3008 RMK BR DSPTNG ST OVR MT= 081520

MMTG 081447Z 35004KT 2 1/2SM BR HZ SKC 23/20 A3007 RMK SLP153 52020 909 BR DSPTNG ST OVR MT= 081448

MMTG 081346Z 31003KT 2SM BR HZ SKC 20/19 A3005 RMK VRBL COND= 081347

MMTG 081242Z 00000KT 2 1/2SM BR HZ SKC 18/17 A3003= 081243

MMTG 081157Z RTD 32002KT 2SM BR HZ SKC 18/17 A3001 RMK SLP135 5//// 904= 081200

MMTG 081118Z RTD 00000KT 1 1/2SM BR HZ SKC 18/18 A3000 RMK RTS= 081128

MMTG 080542Z 31004KT 8SM SCT080 SCT090 23/19 A2999 RMK SLP119 51005 955 8/070= 080543

MMTG 080503Z RTD 22004KT 8SM SKC 23/20 A3000= 080504

MMTG 080344Z 00000KT 8SM SKC 23/19 A2999= 080345

MMTG 080313Z RTD 32007KT 8SM SKC 25/20 A2997 RMK SLP117 51018 900 RTS= 080314

MMTG 080151Z 31010KT 8SM SKC 25/20 A2996 RMK ISOL CI= 080152

MMTG 080051Z 31013KT 8SM SKC 26/20 A2994 RMK ISOL CI= 080052

MMTG 072345Z 32009KT 7SM SCT300 26/20 A2992 RMK SLP103 52012 904 8/002 ISOL SC / HZY= 072346

MMTG 072248Z 30019KT 6SM SCT040 SCT080 28/20 A2990 RMK 8/430 HZY= 072249

MMTG 072148Z 30015KT 6SM SCT040 30/20 A2989 RMK 8/100 TCU FRMG HZY= 072149

MMTG 072050Z 32003KT 7SM SCT040 32/18 A2988 RMK SLP083 57036 900 8/100 HZY= 072052

MMTG 071946Z 32003KT 7SM SCT040 32/17 A2990 RMK 8/100 HZY= 071947

MMTG 071846Z 00000KT 7SM SCT035 31/18 A2994 RMK 8/100 HZY= 071847

MMTG 071745Z 26002KT 6SM SCT025 30/18 A2999 RMK SLP121 57018 961 8/100 HZY= 071746

MMTG 071642Z 00000KT 6SM SCT020 29/20 A3002 RMK 8/100 HZY= 071643

MMTG 071542Z 00000KT 6SM SCT018 27/20 A3004 RMK 8/500 HZY= 071542

MMTG 071441Z 08003KT 6SM SKC 24/20 A3005 RMK SLP142 52015 960 ST OVR MT HZY= 071442

MMTG 071350Z 14003KT 6SM SKC 23/19 A3003 RMK ST OVR MT HZY= 071350

MMTG 071248Z 21002KT 6SM SKC 18/17 A3001 RMK ST OVR MT HZY= 071248

MMTG 071149Z 00000KT 5SM SKC 18/17 A3000 RMK SLP129 5//// 965 HZY= 071150

MMTG 071118Z RTD 21002KT 5SM SKC 19/18 A2999 RMK HZY RTS= 071125

MMTG 070548Z 30004KT 8SM SCT080 SCT090 22/19 A3000 RMK SLP126 51010 9// 8/070= 070550

MMTG 070457Z RTD 22002KT 8SM SKC 24/20 A3000= 070458

MMTG 070404Z RTD 17006KT 8SM SKC 23/19 A2999= 070404

MMTG 070254Z 32004KT 8SM SKC 25/20 A2997 RMK SLP119 51022 960= 070254

MMTG 070145Z 31006KT 8SM SKC 27/19 A2994= 070146

MMTG 070048Z 31010KT 8SM SKC 28/19 A2992 RMK ISOL AC= 070049

MMTG 062353Z 31009KT 8SM SKC 28/19 A2990 RMK SLP123 52005 967 ISOL SC= 062354

MMTG 062246Z 33007KT 8SM FEW030 31/18 A2988 RMK 8/400= 062246

MMTG 062144Z 02004KT 8SM SKC 33/17 A2986 RMK ISOL SC= 062145

MMTG 062052Z 34007KT 8SM FEW080 33/17 A2988 RMK SLP082 56047 953 8/030= 062052